Time;durP1;ratioP1;P1;durP2;ratioP2;P2;SDS_P1;SDS_P2;PMS_P1;PMS_P2;Temp;Humidity;BMP_temperature;BMP_pressure;BME280_temperature;BME280_humidity;BME280_pressure;Samples;Min_cycle;Max_cycle;Signal;HPM_P1;HPM_P2
2022/04/16 00:00:28;;;;;;;2.60;2.13;;;9.40;99.90;10.10;97256.00;;;;4973223;28;20203;-83
2022/04/16 00:02:58;;;;;;;2.20;2.00;;;9.40;99.90;9.80;97262.00;;;;4972297;28;20199;-83
2022/04/16 00:05:27;;;;;;;2.20;2.10;;;;;9.60;97247.00;;;;4973278;28;20293;-87
2022/04/16 00:08:07;;;;;;;2.40;2.20;;;9.20;99.90;9.70;97262.00;;;;4972371;28;20214;-84
2022/04/16 00:10:39;;;;;;;2.00;1.80;;;9.20;99.90;9.70;97267.00;;;;4973015;28;20215;-84
2022/04/16 00:13:08;;;;;;;1.83;1.73;;;9.10;99.90;9.80;97264.00;;;;4973311;28;20451;-85
2022/04/16 00:15:38;;;;;;;2.23;2.03;;;9.10;99.90;9.80;97265.00;;;;4972459;28;20258;-86
2022/04/16 00:18:08;;;;;;;2.23;2.03;;;9.10;99.90;9.90;97262.00;;;;4973314;28;20203;-86
2022/04/16 00:20:40;;;;;;;2.13;1.93;;;9.10;99.90;9.90;97266.00;;;;4973942;28;20211;-84
2022/04/16 00:23:09;;;;;;;2.70;2.50;;;9.20;99.90;9.90;97274.00;;;;4972744;28;20232;-84
2022/04/16 00:25:37;;;;;;;1.90;1.80;;;9.10;99.90;9.70;97268.00;;;;4971577;28;20222;-83
2022/04/16 00:28:08;;;;;;;3.00;1.97;;;9.10;99.90;9.60;97248.00;;;;4962592;28;20203;-85
2022/04/16 00:30:39;;;;;;;2.50;2.00;;;9.10;99.90;9.60;97256.00;;;;4972181;28;20230;-83
2022/04/16 00:33:12;;;;;;;2.23;2.00;;;9.00;99.90;9.80;97256.00;;;;4971803;28;20558;-84
2022/04/16 00:35:42;;;;;;;2.63;2.07;;;9.00;99.90;9.70;97267.00;;;;4971993;28;20227;-84
2022/04/16 00:38:11;;;;;;;3.80;2.50;;;9.00;99.90;9.50;97267.00;;;;4972419;28;20285;-85
2022/04/16 00:40:40;;;;;;;2.43;2.23;;;9.00;99.90;9.40;97256.00;;;;4972764;28;20593;-83
2022/04/16 00:43:09;;;;;;;2.27;2.07;;;8.90;99.90;9.20;97258.00;;;;4972328;28;20262;-85
2022/04/16 00:45:39;;;;;;;2.63;2.43;;;8.90;99.90;9.40;97253.00;;;;4971843;28;20219;-83
2022/04/16 00:48:09;;;;;;;2.97;2.10;;;8.80;99.90;9.60;97246.00;;;;4971918;28;20282;-85
2022/04/16 00:50:37;;;;;;;1.73;1.63;;;8.80;99.90;9.60;97247.00;;;;4972263;28;20223;-83
2022/04/16 00:53:06;;;;;;;1.87;1.77;;;8.80;99.90;9.70;97262.00;;;;4972215;28;20203;-85
2022/04/16 00:55:38;;;;;;;2.90;1.80;;;9.00;99.90;9.90;97259.00;;;;4971762;28;20219;-84
2022/04/16 00:58:07;;;;;;;2.10;2.00;;;8.90;99.90;9.80;97256.00;;;;4971617;28;20235;-84
2022/04/16 01:00:35;;;;;;;1.80;1.70;;;8.90;99.90;9.40;97252.00;;;;4972233;28;20238;-84
2022/04/16 01:03:04;;;;;;;2.33;2.10;;;8.90;99.90;9.50;97256.00;;;;4972035;28;20203;-83
2022/04/16 01:05:35;;;;;;;2.40;2.23;;;8.90;99.90;9.60;97246.00;;;;4972325;28;20267;-85
2022/04/16 01:08:04;;;;;;;2.07;1.90;;;8.90;99.90;9.70;97238.00;;;;4971855;28;20214;-86
2022/04/16 01:10:34;;;;;;;1.73;1.63;;;8.90;99.90;9.30;97244.00;;;;4972269;28;20302;-84
2022/04/16 01:13:05;;;;;;;1.80;1.70;;;8.90;99.90;9.40;97243.00;;;;4972583;28;20214;-83
2022/04/16 01:15:34;;;;;;;2.30;2.10;;;8.80;99.90;9.40;97240.00;;;;4971854;28;20251;-86
2022/04/16 01:18:05;;;;;;;2.17;1.97;;;8.80;99.90;9.50;97243.00;;;;4971843;28;20203;-84
2022/04/16 01:20:37;;;;;;;1.93;1.83;;;8.80;99.90;9.30;97233.00;;;;4972570;28;20210;-86
2022/04/16 01:23:07;;;;;;;1.70;1.60;;;8.70;99.90;9.10;97240.00;;;;4971951;28;20211;-86
2022/04/16 01:25:36;;;;;;;3.27;2.23;;;8.90;99.90;9.10;97241.00;;;;4971822;28;20223;-83
2022/04/16 01:28:05;;;;;;;1.97;1.87;;;8.60;99.90;9.10;97243.00;;;;4971080;28;20211;-85
2022/04/16 01:30:35;;;;;;;2.03;1.93;;;8.60;99.90;8.80;97247.00;;;;4972369;28;20229;-86
2022/04/16 01:33:04;;;;;;;2.10;1.80;;;8.50;99.90;8.50;97246.00;;;;4972731;28;20432;-83
2022/04/16 01:35:33;;;;;;;3.30;2.10;;;8.40;99.90;8.60;97252.00;;;;4971544;28;20274;-83
2022/04/16 01:38:08;;;;;;;2.40;2.20;;;8.30;99.90;8.70;97243.00;;;;4971481;28;20261;-83
2022/04/16 01:40:38;;;;;;;3.30;2.07;;;8.20;99.90;8.60;97257.00;;;;4972379;28;20239;-84
2022/04/16 01:43:07;;;;;;;3.27;2.17;;;8.20;99.90;8.60;97258.00;;;;4972893;28;20203;-84
2022/04/16 01:45:35;;;;;;;2.60;2.17;;;8.20;99.90;8.60;97249.00;;;;4975770;28;20281;-83
2022/04/16 01:48:04;;;;;;;2.60;2.27;;;8.10;99.90;8.40;97242.00;;;;4975208;28;20226;-85
2022/04/16 01:50:33;;;;;;;2.43;2.27;;;8.10;99.90;8.60;97247.00;;;;4976063;28;20254;-86
2022/04/16 01:53:01;;;;;;;2.00;1.90;;;8.10;99.90;8.60;97254.00;;;;4975371;28;20204;-84
2022/04/16 01:55:31;;;;;;;2.53;2.23;;;8.10;99.90;8.70;97246.00;;;;4974800;28;20255;-83
2022/04/16 01:58:00;;;;;;;3.47;2.10;;;8.10;99.90;8.70;97241.00;;;;4974471;28;20290;-85
2022/04/16 02:00:28;;;;;;;2.10;1.90;;;8.00;99.90;8.70;97240.00;;;;4974952;28;20203;-83
2022/04/16 02:02:57;;;;;;;2.43;2.23;;;7.90;99.90;8.80;97240.00;;;;4974993;28;20217;-84
2022/04/16 02:05:26;;;;;;;2.60;2.40;;;8.00;99.90;8.90;97242.00;;;;4975016;28;20203;-83
2022/04/16 02:07:55;;;;;;;2.07;1.87;;;8.10;99.90;8.20;97244.00;;;;4974649;28;20202;-83
2022/04/16 02:10:24;;;;;;;1.80;1.70;;;8.00;99.90;8.20;97248.00;;;;4975694;28;20250;-83
2022/04/16 02:12:54;;;;;;;2.00;1.90;;;7.90;99.90;8.30;97255.00;;;;4975440;28;20213;-84
2022/04/16 02:15:22;;;;;;;2.07;1.87;;;7.80;99.90;8.20;97240.00;;;;4975745;28;20290;-84
2022/04/16 02:17:51;;;;;;;3.80;1.90;;;7.90;99.90;8.30;97247.00;;;;4974305;28;20716;-84
2022/04/16 02:20:19;;;;;;;2.37;2.23;;;7.70;99.90;8.10;97240.00;;;;4975062;28;20307;-84
2022/04/16 02:22:48;;;;;;;2.57;2.37;;;7.70;99.90;8.10;97246.00;;;;4974594;28;20250;-83
2022/04/16 02:25:18;;;;;;;3.00;2.80;;;7.70;99.90;8.00;97246.00;;;;4974303;28;20200;-85
2022/04/16 02:27:47;;;;;;;3.60;2.43;;;7.60;99.90;7.80;97245.00;;;;4974088;28;20210;-83
2022/04/16 02:30:19;;;;;;;2.80;2.60;;;7.70;99.90;7.70;97241.00;;;;4974661;28;20201;-86
2022/04/16 02:32:52;;;;;;;2.47;2.30;;;7.40;99.90;7.80;97234.00;;;;4974931;28;20278;-85
2022/04/16 02:35:22;;;;;;;2.23;2.03;;;7.40;99.90;8.00;97249.00;;;;4974241;28;20237;-85
2022/04/16 02:37:51;;;;;;;2.63;2.30;;;7.30;99.90;8.10;97252.00;;;;4974482;28;20246;-83
2022/04/16 02:40:19;;;;;;;3.80;2.73;;;7.50;99.90;8.10;97239.00;;;;4974732;28;20249;-85
2022/04/16 02:42:48;;;;;;;3.53;2.30;;;7.40;99.90;7.50;97242.00;;;;4974287;28;20215;-84
2022/04/16 02:48:05;;;;;;;2.90;2.63;;;7.40;99.90;7.30;97252.00;;;;4973904;28;20286;-85
2022/04/16 02:50:34;;;;;;;2.73;2.53;;;7.10;99.90;7.50;97255.00;;;;4974430;28;20222;-86
2022/04/16 02:53:03;;;;;;;3.70;3.00;;;7.60;99.90;7.50;97249.00;;;;4974562;28;20214;-83
2022/04/16 02:55:31;;;;;;;3.40;3.10;;;7.20;99.90;7.70;97247.00;;;;4973057;28;20227;-85
2022/04/16 02:58:00;;;;;;;2.87;2.67;;;;;7.40;97254.00;;;;4973807;28;20221;-85
2022/04/16 03:00:30;;;;;;;3.00;2.70;;;;;7.40;97244.00;;;;4961506;28;20266;-83
2022/04/16 03:02:59;;;;;;;3.20;2.90;;;;;7.70;97263.00;;;;4973605;28;20314;-84
2022/04/16 03:05:28;;;;;;;5.07;3.27;;;;;7.80;97257.00;;;;4974530;28;20361;-84
2022/04/16 03:07:57;;;;;;;3.10;2.90;;;;;7.70;97252.00;;;;4973742;28;20211;-84
2022/04/16 03:10:26;;;;;;;2.97;2.67;;;;;7.50;97242.00;;;;4974665;28;20199;-83
2022/04/16 03:12:56;;;;;;;3.17;2.73;;;;;7.80;97254.00;;;;4973858;28;20201;-85
2022/04/16 03:18:12;;;;;;;5.73;3.27;;;;;7.50;97241.00;;;;4973030;28;20211;-86
2022/04/16 03:20:42;;;;;;;3.23;2.93;;;;;7.60;97258.00;;;;4974168;28;20214;-83
2022/04/16 03:23:12;;;;;;;3.97;3.57;;;;;7.50;97240.00;;;;4973576;28;20266;-84
2022/04/16 03:25:41;;;;;;;3.87;3.57;;;;;7.40;97239.00;;;;4972640;28;20310;-84
2022/04/16 03:28:10;;;;;;;3.97;3.13;;;;;7.30;97245.00;;;;4973137;28;20199;-85
2022/04/16 03:30:39;;;;;;;3.70;3.40;;;;;7.50;97247.00;;;;4973918;28;20250;-83
2022/04/16 03:33:08;;;;;;;3.53;3.23;;;;;7.40;97247.00;;;;4973461;28;20195;-83
2022/04/16 03:35:39;;;;;;;3.70;3.17;;;;;7.10;97243.00;;;;4973133;28;20231;-85
2022/04/16 03:38:08;;;;;;;5.23;3.87;;;;;7.30;97249.00;;;;4972991;28;20250;-83
2022/04/16 03:40:37;;;;;;;3.17;2.97;;;;;7.20;97258.00;;;;4973497;28;20254;-85
2022/04/16 03:43:05;;;;;;;3.10;2.87;;;;;6.50;97254.00;;;;4973840;28;20227;-83
2022/04/16 03:45:36;;;;;;;3.10;2.90;;;;;6.50;97253.00;;;;4972613;28;20229;-84
2022/04/16 03:48:06;;;;;;;4.27;3.80;;;;;6.80;97245.00;;;;4972762;28;20591;-83
2022/04/16 03:50:36;;;;;;;3.70;3.40;;;;;7.00;97248.00;;;;4973485;28;20243;-85
2022/04/16 03:53:07;;;;;;;5.53;3.60;;;;;7.20;97256.00;;;;4972976;28;20206;-83
2022/04/16 04:01:08;;;;;;;5.23;3.70;;;;;7.20;97257.00;;;;4972273;28;20209;-86
2022/04/16 04:03:37;;;;;;;4.67;3.83;;;;;7.30;97248.00;;;;4972224;28;20206;-84
2022/04/16 04:06:07;;;;;;;3.50;3.20;;;;;7.40;97245.00;;;;4973753;28;20231;-86
2022/04/16 04:08:37;;;;;;;4.23;3.80;;;;;7.50;97253.00;;;;4972306;28;20211;-86
2022/04/16 04:11:06;;;;;;;4.23;3.60;;;;;7.50;97253.00;;;;4974376;28;20203;-86
2022/04/16 04:13:35;;;;;;;2.63;2.43;;;;;7.10;97256.00;;;;4974062;28;20196;-85
2022/04/16 04:16:04;;;;;;;2.93;2.73;;;;;6.20;97258.00;;;;4973292;28;20223;-84
2022/04/16 04:18:33;;;;;;;3.53;3.23;;;;;6.50;97257.00;;;;4972933;28;20282;-85
2022/04/16 04:21:02;;;;;;;4.07;3.20;;;;;6.90;97261.00;;;;4973981;28;20199;-85
2022/04/16 04:23:31;;;;;;;3.67;3.10;;;;;6.80;97253.00;;;;4973749;28;20227;-87
2022/04/16 04:26:01;;;;;;;4.00;3.63;;;;;6.90;97262.00;;;;4973046;28;20223;-83
2022/04/16 04:28:30;;;;;;;3.80;3.47;;;;;7.20;97265.00;;;;4973560;28;20202;-83
2022/04/16 04:30:59;;;;;;;3.70;3.40;;;;;6.90;97261.00;;;;4974044;28;20207;-84
2022/04/16 04:33:27;;;;;;;3.33;3.03;;;;;6.60;97269.00;;;;4973134;28;20199;-86
2022/04/16 04:35:56;;;;;;;6.73;4.03;;;;;6.10;97266.00;;;;4973416;28;20223;-83
2022/04/16 04:38:25;;;;;;;4.00;3.67;;;;;6.20;97260.00;;;;4972899;28;20203;-86
2022/04/16 04:40:54;;;;;;;4.57;3.93;;;;;6.60;97270.00;;;;4974100;28;20207;-84
2022/04/16 04:43:24;;;;;;;4.90;3.87;;;;;6.70;97282.00;;;;4974590;28;20219;-86
2022/04/16 04:45:53;;;;;;;3.87;3.50;;;;;6.90;97288.00;;;;4973622;28;20285;-85
2022/04/16 04:48:21;;;;;;;3.60;3.30;;;;;7.00;97284.00;;;;4973825;28;20207;-85
2022/04/16 04:50:50;;;;;;;6.23;3.60;;;;;7.00;97289.00;;;;4974177;28;20262;-84
2022/04/16 04:53:19;;;;;;;2.53;2.33;;;;;7.10;97280.00;;;;4974449;28;20199;-85
2022/04/16 04:55:48;;;;;;;3.37;3.07;;;;;7.00;97285.00;;;;4973987;28;20227;-86
2022/04/16 04:58:17;;;;;;;4.97;3.40;;;;;6.90;97285.00;;;;4973313;28;20207;-84
2022/04/16 05:00:49;;;;;;;5.10;3.23;;;;;6.80;97286.00;;;;4972460;28;20231;-83
2022/04/16 05:03:18;;;;;;;3.70;3.40;;;;;6.40;97277.00;;;;4971921;28;20647;-85
2022/04/16 05:05:47;;;;;;;3.67;3.37;;;;;6.80;97285.00;;;;4972410;28;20231;-84
2022/04/16 05:08:16;;;;;;;3.10;2.80;;;;;7.30;97281.00;;;;4971561;28;20221;-86
2022/04/16 05:10:45;;;;;;;2.80;2.60;;;;;7.70;97281.00;;;;4972562;28;20195;-83
2022/04/16 05:13:14;;;;;;;3.10;2.83;;;;;7.90;97293.00;;;;4972012;28;20203;-83
2022/04/16 05:15:42;;;;;;;2.43;2.23;;;;;8.00;97275.00;;;;4971664;28;20223;-84
2022/04/16 05:18:13;;;;;;;2.50;2.30;;;;;8.30;97287.00;;;;4972722;28;20203;-83
2022/04/16 05:20:41;;;;;;;2.37;2.17;;;;;8.60;97279.00;;;;4976750;28;20299;-85
2022/04/16 05:23:10;;;;;;;2.47;2.27;;;;;9.00;97283.00;;;;4976321;28;20230;-86
2022/04/16 05:25:39;;;;;;;2.27;2.13;;;;;9.20;97292.00;;;;4975748;28;20223;-85
2022/04/16 05:28:09;;;;;;;1.93;1.67;;;;;9.50;97296.00;;;;4975552;28;20290;-83
2022/04/16 05:30:44;;;;;;;2.30;2.10;;;;;9.40;97277.00;;;;4976214;28;20243;-84
2022/04/16 05:34:18;;;;;;;2.00;1.80;;;;;9.40;97274.00;;;;4975913;28;20273;-86
2022/04/16 05:36:06;;;;;;;2.60;1.63;;;;;10.00;97274.00;;;;4976607;28;20255;-85
2022/04/16 05:38:35;;;;;;;2.23;1.90;;;;;9.70;97272.00;;;;4976906;28;20206;-84
2022/04/16 05:41:04;;;;;;;4.37;3.30;;;;;9.40;97258.00;;;;4975993;28;20261;-83
2022/04/16 05:43:33;;;;;;;5.93;3.37;;;;;9.00;97255.00;;;;4976169;28;20238;-85
2022/04/16 05:46:02;;;;;;;3.57;3.10;;;;;9.20;97268.00;;;;4976913;28;20234;-84
2022/04/16 05:48:32;;;;;;;2.77;2.30;;;;;9.70;97275.00;;;;4977070;28;20196;-84
2022/04/16 05:51:01;;;;;;;2.30;2.10;;;9.00;99.90;10.10;97287.00;;;;4976876;28;20210;-84
2022/04/16 05:53:30;;;;;;;2.53;2.33;;;9.10;99.90;10.40;97276.00;;;;4976620;28;20214;-84
2022/04/16 05:56:00;;;;;;;6.43;4.07;;;9.20;99.90;10.70;97288.00;;;;4976733;28;20301;-85
2022/04/16 05:58:28;;;;;;;3.77;2.93;;;9.40;99.90;10.80;97290.00;;;;4975796;28;20208;-83
2022/04/16 06:00:57;;;;;;;3.10;2.13;;;9.60;99.90;11.00;97283.00;;;;4977440;28;20199;-84
2022/04/16 06:03:26;;;;;;;3.37;2.80;;;9.80;99.90;11.30;97283.00;;;;4971371;28;20214;-84
2022/04/16 06:05:57;;;;;;;8.93;6.67;;;9.90;99.90;11.40;97288.00;;;;4971928;28;20314;-83
2022/04/16 06:08:25;;;;;;;2.40;2.20;;;10.10;99.90;11.60;97306.00;;;;4974842;28;20207;-85
2022/04/16 06:10:54;;;;;;;2.40;1.90;;;10.30;99.90;11.70;97297.00;;;;4976169;28;20210;-84
2022/04/16 06:13:22;;;;;;;3.37;2.10;;;10.40;99.90;11.90;97296.00;;;;4976074;28;20207;-83
2022/04/16 06:15:51;;;;;;;2.20;1.73;;;10.60;99.90;12.10;97292.00;;;;4977709;28;20226;-83
2022/04/16 06:18:20;;;;;;;2.17;1.97;;;10.70;99.90;12.30;97290.00;;;;4979279;28;20254;-84
2022/04/16 06:20:48;;;;;;;2.30;1.90;;;10.90;99.90;12.50;97293.00;;;;4979919;28;20219;-83
2022/04/16 06:23:21;;;;;;;1.70;1.60;;;11.10;99.90;12.50;97283.00;;;;4980603;28;20219;-84
2022/04/16 06:25:49;;;;;;;1.53;1.43;;;11.20;99.90;12.60;97286.00;;;;4972621;28;20219;-83
2022/04/16 06:28:18;;;;;;;1.03;1.03;;;11.30;99.90;12.70;97292.00;;;;4978736;28;20219;-82
2022/04/16 06:30:46;;;;;;;1.50;1.40;;;11.50;99.90;12.90;97288.00;;;;4978387;28;20211;-83
2022/04/16 06:33:15;;;;;;;0.90;0.90;;;11.60;99.90;12.30;97294.00;;;;4978731;28;20207;-83
2022/04/16 06:35:43;;;;;;;1.57;1.47;;;11.70;99.90;12.60;97289.00;;;;4975166;28;20219;-84
2022/04/16 06:38:12;;;;;;;1.77;1.63;;;11.80;99.90;13.00;97281.00;;;;4974073;28;20238;-84
2022/04/16 06:40:42;;;;;;;1.80;1.70;;;11.90;99.90;13.00;97282.00;;;;4976277;28;20202;-83
2022/04/16 06:43:10;;;;;;;1.30;1.20;;;11.90;99.90;13.20;97283.00;;;;4981447;28;20218;-84
2022/04/16 06:45:39;;;;;;;1.50;1.40;;;12.00;99.90;13.30;97277.00;;;;4977631;28;20219;-84
2022/04/16 06:48:08;;;;;;;1.33;1.23;;;12.20;99.90;13.40;97287.00;;;;4978805;28;20211;-83
2022/04/16 06:50:36;;;;;;;1.40;1.20;;;12.30;99.90;13.70;97285.00;;;;4979047;28;20207;-84
2022/04/16 06:53:05;;;;;;;1.20;1.10;;;12.40;99.90;13.50;97287.00;;;;4978483;28;20260;-83
2022/04/16 06:55:34;;;;;;;1.20;1.10;;;12.50;98.80;13.30;97281.00;;;;4975339;28;20222;-82
2022/04/16 06:58:04;;;;;;;2.27;1.27;;;12.50;97.40;13.70;97294.00;;;;4976980;28;20294;-84
2022/04/16 07:00:33;;;;;;;1.27;1.17;;;12.60;97.60;13.80;97296.00;;;;4977573;28;20203;-84
2022/04/16 07:03:01;;;;;;;1.87;1.70;;;12.70;96.70;13.80;97293.00;;;;4977234;28;20199;-83
2022/04/16 07:05:30;;;;;;;1.60;1.20;;;12.80;96.30;13.10;97290.00;;;;4974769;28;20220;-84
2022/04/16 07:07:59;;;;;;;1.50;1.40;;;12.80;93.30;12.90;97282.00;;;;4973134;28;20199;-83
2022/04/16 07:10:27;;;;;;;1.67;1.50;;;12.80;92.60;13.40;97283.00;;;;4973509;28;20290;-80
2022/04/16 07:12:56;;;;;;;2.87;2.23;;;12.70;93.10;14.00;97296.00;;;;4974625;28;20200;-84
2022/04/16 07:15:26;;;;;;;1.87;1.47;;;12.80;93.80;13.80;97295.00;;;;4975017;28;20234;-82
2022/04/16 07:17:54;;;;;;;1.00;1.00;;;12.90;93.20;13.90;97308.00;;;;4973281;28;20203;-82
2022/04/16 07:20:23;;;;;;;4.93;1.90;;;13.00;92.40;14.00;97305.00;;;;4973593;28;20208;-81
2022/04/16 07:22:51;;;;;;;3.17;0.97;;;13.10;92.60;14.00;97309.00;;;;4973380;28;20233;-81
2022/04/16 07:25:21;;;;;;;0.97;0.97;;;13.10;91.70;13.80;97306.00;;;;4973517;28;20223;-81
2022/04/16 07:27:49;;;;;;;1.73;1.07;;;13.10;90.50;14.30;97310.00;;;;4973688;28;20197;-81
2022/04/16 07:30:18;;;;;;;0.80;0.80;;;13.20;91.20;14.40;97310.00;;;;4973981;28;20207;-80
2022/04/16 07:32:48;;;;;;;1.33;1.20;;;13.30;91.50;14.10;97305.00;;;;4971815;28;20214;-84
2022/04/16 07:35:16;;;;;;;1.00;0.97;;;13.30;90.80;14.20;97313.00;;;;4972660;28;20218;-82
2022/04/16 07:37:46;;;;;;;0.90;0.90;;;13.30;91.20;14.30;97302.00;;;;4972529;28;20250;-81
2022/04/16 07:40:14;;;;;;;1.30;1.20;;;13.40;90.70;14.90;97316.00;;;;4972602;28;20278;-82
2022/04/16 07:42:43;;;;;;;1.10;1.07;;;13.50;91.50;15.00;97313.00;;;;4971980;28;20200;-81
2022/04/16 07:45:11;;;;;;;1.13;1.13;;;13.70;90.90;15.10;97303.00;;;;4973347;28;20230;-81
2022/04/16 07:47:40;;;;;;;1.10;1.00;;;13.80;90.50;15.00;97310.00;;;;4972602;28;20195;-82
2022/04/16 07:50:11;;;;;;;1.10;0.87;;;13.90;90.10;15.20;97308.00;;;;4973648;28;20278;-82
2022/04/16 07:52:39;;;;;;;1.77;0.73;;;14.00;89.60;15.40;97315.00;;;;4974375;28;20206;-83
2022/04/16 07:55:09;;;;;;;0.80;0.80;;;14.20;88.70;15.70;97317.00;;;;4974291;28;20282;-83
2022/04/16 07:57:38;;;;;;;0.83;0.70;;;14.30;87.00;15.40;97313.00;;;;4972744;28;20298;-81
2022/04/16 08:00:10;;;;;;;1.20;0.70;;;14.40;83.60;15.20;97319.00;;;;4973022;28;20206;-81
2022/04/16 08:02:38;;;;;;;0.60;0.60;;;14.40;84.50;15.10;97326.00;;;;4973740;28;20207;-81
2022/04/16 08:05:10;;;;;;;0.83;0.60;;;14.30;85.20;14.40;97328.00;;;;4973743;28;20226;-82
2022/04/16 08:07:39;;;;;;;1.80;1.50;;;14.20;82.90;14.00;97317.00;;;;4973829;28;20199;-79
2022/04/16 08:10:09;;;;;;;5.90;3.03;;;13.90;82.00;14.50;97308.00;;;;4974626;28;20227;-81
2022/04/16 08:12:38;;;;;;;0.97;0.77;;;13.80;82.90;15.00;97306.00;;;;4974532;28;20203;-83
2022/04/16 08:15:07;;;;;;;0.50;0.50;;;13.90;83.60;15.30;97305.00;;;;4973637;28;20199;-84
2022/04/16 08:17:37;;;;;;;0.77;0.73;;;14.10;84.10;15.60;97315.00;;;;4972376;28;20211;-83
2022/04/16 08:20:09;;;;;;;1.33;1.00;;;14.30;83.40;16.10;97305.00;;;;4972513;28;20203;-83
2022/04/16 08:22:40;;;;;;;0.60;0.60;;;14.60;84.30;15.70;97296.00;;;;4969162;28;20195;-82
2022/04/16 08:27:55;;;;;;;0.67;0.67;;;14.90;82.00;15.70;97317.00;;;;4966146;28;20290;-82
2022/04/16 08:30:24;;;;;;;0.50;0.50;;;15.00;78.00;14.60;97310.00;;;;4972939;28;20237;-82
2022/04/16 08:32:52;;;;;;;0.80;0.60;;;14.70;74.10;14.80;97302.00;;;;4973032;28;20191;-83
2022/04/16 08:35:22;;;;;;;0.70;0.70;;;14.50;76.20;15.00;97305.00;;;;4973621;28;20227;-84
2022/04/16 08:37:52;;;;;;;0.53;0.40;;;14.40;77.00;15.20;97310.00;;;;4986839;28;20227;-81
2022/04/16 08:40:21;;;;;;;0.80;0.80;;;14.30;76.90;15.90;97304.00;;;;4988478;28;20203;-86
2022/04/16 08:42:50;;;;;;;0.70;0.60;;;14.40;77.70;16.50;97304.00;;;;4974894;28;20245;-82
2022/04/16 08:45:18;;;;;;;0.40;0.40;;;14.60;78.80;16.60;97308.00;;;;4979809;28;20250;-84
2022/04/16 08:47:47;;;;;;;1.60;0.40;;;14.90;79.00;16.30;97307.00;;;;4985177;28;20201;-85
2022/04/16 08:50:16;;;;;;;0.60;0.60;;;15.20;76.90;16.60;97311.00;;;;4983287;28;20270;-84
2022/04/16 08:52:46;;;;;;;0.70;0.70;;;15.30;75.50;16.50;97308.00;;;;4978295;28;20231;-84
2022/04/16 08:55:15;;;;;;;0.40;0.40;;;15.50;73.70;17.60;97317.00;;;;4990193;28;20215;-84
2022/04/16 08:57:43;;;;;;;0.70;0.60;;;15.80;78.30;17.70;97304.00;;;;4980318;28;20199;-84
2022/04/16 09:00:14;;;;;;;0.43;0.43;;;16.00;75.60;16.00;97316.00;;;;4974076;28;20689;-83
2022/04/16 09:02:52;;;;;;;3.43;2.00;;;16.20;68.30;16.10;97294.00;;;;4974642;28;20287;-83
2022/04/16 09:05:21;;;;;;;1.63;0.80;;;15.90;69.50;16.00;97300.00;;;;4975561;28;20219;-86
2022/04/16 09:07:53;;;;;;;0.50;0.50;;;15.80;68.10;16.10;97304.00;;;;4975618;28;20195;-84
2022/04/16 09:10:26;;;;;;;1.33;0.70;;;15.70;68.30;16.30;97300.00;;;;4977917;28;20286;-83
2022/04/16 09:12:56;;;;;;;2.80;1.93;;;15.60;71.10;16.20;97315.00;;;;4976979;28;20374;-83
2022/04/16 09:15:26;;;;;;;1.30;0.77;;;15.40;69.20;16.00;97298.00;;;;4976449;28;20238;-85
2022/04/16 09:18:00;;;;;;;0.53;0.53;;;15.50;70.00;16.20;97331.00;;;;4983045;28;20197;-84
2022/04/16 09:20:34;;;;;;;0.40;0.40;;;15.50;67.90;15.80;97336.00;;;;4994458;28;20213;-84
2022/04/16 09:23:16;;;;;;;0.73;0.50;;;15.60;68.40;16.10;97303.00;;;;4979249;28;20192;-83
2022/04/16 09:25:46;;;;;;;0.30;0.30;;;15.60;69.60;16.90;97313.00;;;;4978413;28;20285;-85
2022/04/16 09:28:17;;;;;;;0.60;0.60;;;15.70;70.90;17.30;97322.00;;;;4980851;28;20231;-84
2022/04/16 09:30:51;;;;;;;0.60;0.40;;;15.90;70.80;17.20;97314.00;;;;4981532;28;20231;-86
2022/04/16 09:33:20;;;;;;;0.40;0.40;;;16.10;69.60;17.00;97306.00;;;;4976017;28;20206;-82
2022/04/16 09:35:53;;;;;;;0.63;0.53;;;16.20;68.70;16.40;97331.00;;;;4972911;28;20231;-84
2022/04/16 09:38:25;;;;;;;0.77;0.40;;;16.20;65.10;16.20;97325.00;;;;4977907;28;20203;-86
2022/04/16 09:40:53;;;;;;;0.30;0.30;;;15.90;65.30;16.00;97314.00;;;;4973354;28;20231;-86
2022/04/16 09:43:22;;;;;;;0.40;0.40;;;15.90;63.50;16.10;97315.00;;;;4977188;28;20209;-84
2022/04/16 09:45:50;;;;;;;0.30;0.30;;;15.80;63.90;16.00;97318.00;;;;4972660;28;20312;-85
2022/04/16 09:48:19;;;;;;;0.40;0.40;;;15.70;62.80;15.90;97299.00;;;;4976851;28;20207;-85
2022/04/16 09:50:49;;;;;;;0.20;0.20;;;15.70;65.70;17.10;97309.00;;;;4977170;28;20254;-86
2022/04/16 09:53:23;;;;;;;0.50;0.20;;;15.80;65.50;17.60;97321.00;;;;4979797;28;20294;-82
2022/04/16 09:55:52;;;;;;;0.40;0.40;;;16.10;66.30;17.20;97303.00;;;;4980199;28;20223;-82
2022/04/16 09:58:33;;;;;;;1.10;0.50;;;16.30;65.60;18.20;97310.00;;;;4975729;28;20235;-84
2022/04/16 10:01:03;;;;;;;0.40;0.30;;;16.60;66.80;17.60;97293.00;;;;4987813;28;20219;-84
2022/04/16 10:03:32;;;;;;;0.30;0.30;;;16.70;64.50;18.30;97285.00;;;;4985192;28;20214;-83
2022/04/16 10:06:01;;;;;;;0.30;0.30;;;16.90;64.50;19.10;97315.00;;;;4981744;28;20234;-87
2022/04/16 10:08:34;;;;;;;0.30;0.30;;;17.20;65.30;17.50;97297.00;;;;4977416;28;20207;-83
2022/04/16 10:11:04;;;;;;;0.30;0.30;;;17.20;60.90;17.00;97283.00;;;;4976384;28;20254;-84
2022/04/16 10:13:40;;;;;;;0.30;0.30;;;17.20;60.30;17.00;97300.00;;;;4980719;28;20203;-85
2022/04/16 10:16:17;;;;;;;0.50;0.30;;;17.20;61.50;16.10;97308.00;;;;4979782;28;20219;-86
2022/04/16 10:18:46;;;;;;;1.63;0.30;;;16.80;63.00;16.80;97323.00;;;;4977779;28;20195;-82
2022/04/16 10:21:16;;;;;;;0.50;0.50;;;16.50;62.80;16.80;97326.00;;;;4975445;28;20195;-85
2022/04/16 10:23:47;;;;;;;0.30;0.30;;;16.40;62.00;16.90;97332.00;;;;4974778;28;20195;-84
2022/04/16 10:26:17;;;;;;;0.33;0.33;;;16.20;63.50;15.60;97333.00;;;;4977182;28;20304;-86
2022/04/16 10:28:54;;;;;;;0.40;0.30;;;16.90;64.00;16.40;97350.00;;;;4981723;28;20199;-86
2022/04/16 10:31:24;;;;;;;0.40;0.40;;;15.80;67.60;15.60;97348.00;;;;4982156;28;20233;-83
2022/04/16 10:34:01;;;;;;;0.40;0.30;;;15.50;74.60;15.90;97373.00;;;;4978508;28;20218;-85
2022/04/16 10:36:32;;;;;;;1.07;0.97;;;15.40;75.60;14.80;97370.00;;;;4977348;28;20229;-85
2022/04/16 10:39:15;;;;;;;0.20;0.20;;;15.00;77.90;14.60;97359.00;;;;4979391;28;20202;-86
2022/04/16 10:41:54;;;;;;;0.67;0.40;;;14.60;79.40;16.40;97346.00;;;;4979682;28;20205;-85
2022/04/16 10:44:24;;;;;;;0.27;0.27;;;14.90;84.70;14.90;97308.00;;;;4980321;28;20290;-85
2022/04/16 10:46:55;;;;;;;0.40;0.40;;;14.90;78.70;16.10;97321.00;;;;4980107;28;20226;-82
2022/04/16 10:49:27;;;;;;;0.30;0.20;;;15.00;79.90;16.50;97330.00;;;;4980009;28;20210;-84
2022/04/16 10:51:56;;;;;;;0.43;0.20;;;15.30;77.50;16.50;97326.00;;;;4980390;28;20269;-87
2022/04/16 10:54:34;;;;;;;0.80;0.50;;;15.60;77.10;17.10;97322.00;;;;4990634;28;20203;-82
2022/04/16 10:57:06;;;;;;;0.23;0.23;;;15.80;73.40;16.50;97356.00;;;;4980284;28;20223;-83
2022/04/16 10:59:40;;;;;;;2.10;0.30;;;16.00;71.80;15.10;97358.00;;;;4980308;28;20195;-82
2022/04/16 11:02:20;;;;;;;0.23;0.23;;;15.70;70.90;15.80;97317.00;;;;4982952;28;20203;-84
2022/04/16 11:05:00;;;;;;;0.20;0.20;;;15.60;71.10;16.00;97361.00;;;;4981887;28;20211;-83
2022/04/16 11:07:30;;;;;;;0.20;0.20;;;15.50;69.80;15.40;97352.00;;;;4978829;28;20301;-86
2022/04/16 11:10:00;;;;;;;0.30;0.30;;;15.30;69.00;14.50;97384.00;;;;4979103;28;20212;-86
2022/04/16 11:12:29;;;;;;;0.30;0.27;;;15.20;70.40;14.00;97372.00;;;;4979925;28;20203;-86
2022/04/16 11:14:59;;;;;;;0.23;0.23;;;15.00;71.20;14.90;97368.00;;;;4980462;28;20205;-85
2022/04/16 11:17:27;;;;;;;0.30;0.30;;;14.80;73.10;14.60;97375.00;;;;4976372;28;20219;-84
2022/04/16 11:20:00;;;;;;;0.20;0.20;;;14.50;70.10;14.60;97387.00;;;;4979194;28;20210;-82
2022/04/16 11:22:29;;;;;;;0.20;0.20;;;14.30;72.10;14.70;97373.00;;;;4980418;28;20203;-84
2022/04/16 11:24:59;;;;;;;0.20;0.20;;;14.30;73.50;14.40;97387.00;;;;4980536;28;20191;-83
2022/04/16 11:35:57;;;;;;;0.20;0.10;;;13.90;74.70;14.00;97387.00;;;;4980509;28;20297;-83
2022/04/16 11:38:29;;;;;;;0.20;0.20;;;13.80;73.10;14.60;97375.00;;;;4981849;28;20199;-82
2022/04/16 11:41:01;;;;;;;0.60;0.30;;;13.70;74.00;15.60;97328.00;;;;4980784;28;20219;-85
2022/04/16 11:43:30;;;;;;;1.33;0.60;;;14.10;74.40;16.00;97333.00;;;;4980308;28;20231;-82
2022/04/16 11:46:01;;;;;;;0.70;0.40;;;14.50;74.80;16.40;97322.00;;;;4980871;28;20241;-83
2022/04/16 11:48:32;;;;;;;0.67;0.53;;;14.80;73.00;16.80;97307.00;;;;4976828;28;20200;-84
2022/04/16 11:51:01;;;;;;;1.03;0.90;;;15.20;71.40;17.10;97310.00;;;;4976692;28;20261;-81
2022/04/16 11:53:30;;;;;;;0.40;0.30;;;15.50;69.70;15.10;97293.00;;;;4975811;28;20207;-86